sensor_id;sensor_type;location;lat;lon;timestamp;pressure;altitude;pressure_sealevel;temperature;humidity
77149;BME280;66122;47.130;16.844;2023-04-01T00:10:01;98482.19;;;7.61;100.00
77149;BME280;66122;47.130;16.844;2023-04-01T00:20:05;98485.75;;;7.60;100.00
77149;BME280;66122;47.130;16.844;2023-04-01T00:30:08;98482.84;;;7.51;100.00
77149;BME280;66122;47.130;16.844;2023-04-01T00:40:24;98488.56;;;7.57;100.00
77149;BME280;66122;47.130;16.844;2023-04-01T00:50:28;98454.31;;;7.57;100.00
77149;BME280;66122;47.130;16.844;2023-04-01T01:00:32;98508.44;;;7.77;100.00
77149;BME280;66122;47.130;16.844;2023-04-01T01:10:37;98473.88;;;7.81;100.00
77149;BME280;66122;47.130;16.844;2023-04-01T01:40:51;98430.16;;;7.92;100.00
77149;BME280;66122;47.130;16.844;2023-04-01T01:50:57;98424.56;;;7.69;100.00
77149;BME280;66122;47.130;16.844;2023-04-01T02:01:33;98394.84;;;7.53;100.00
77149;BME280;66122;47.130;16.844;2023-04-01T02:12:04;98392.56;;;7.61;100.00
77149;BME280;66122;47.130;16.844;2023-04-01T02:22:16;98380.34;;;7.46;100.00
77149;BME280;66122;47.130;16.844;2023-04-01T02:32:27;98385.66;;;7.32;100.00
77149;BME280;66122;47.130;16.844;2023-04-01T02:42:58;98428.44;;;7.35;100.00
77149;BME280;66122;47.130;16.844;2023-04-01T02:53:08;98388.84;;;7.09;100.00
77149;BME280;66122;47.130;16.844;2023-04-01T03:03:24;98416.91;;;6.95;100.00
77149;BME280;66122;47.130;16.844;2023-04-01T03:13:54;98432.59;;;6.97;100.00
77149;BME280;66122;47.130;16.844;2023-04-01T03:23:56;98440.13;;;6.89;100.00
77149;BME280;66122;47.130;16.844;2023-04-01T03:34:06;98396.09;;;6.62;100.00
77149;BME280;66122;47.130;16.844;2023-04-01T03:44:36;98409.34;;;6.75;100.00
77149;BME280;66122;47.130;16.844;2023-04-01T03:54:40;98385.03;;;6.42;100.00
77149;BME280;66122;47.130;16.844;2023-04-01T04:04:49;98414.75;;;5.98;100.00
77149;BME280;66122;47.130;16.844;2023-04-01T04:15:19;98410.53;;;5.80;100.00
77149;BME280;66122;47.130;16.844;2023-04-01T04:25:21;98417.41;;;5.98;100.00
77149;BME280;66122;47.130;16.844;2023-04-01T04:35:25;98420.72;;;6.02;100.00
77149;BME280;66122;47.130;16.844;2023-04-01T04:45:34;98461.03;;;6.32;100.00
77149;BME280;66122;47.130;16.844;2023-04-01T04:55:43;98483.25;;;6.42;100.00
77149;BME280;66122;47.130;16.844;2023-04-01T05:06:09;98479.28;;;6.65;100.00
77149;BME280;66122;47.130;16.844;2023-04-01T05:16:20;98451.44;;;6.61;100.00
77149;BME280;66122;47.130;16.844;2023-04-01T05:26:50;98487.22;;;6.79;100.00
77149;BME280;66122;47.130;16.844;2023-04-01T05:36:59;98456.75;;;6.75;100.00
77149;BME280;66122;47.130;16.844;2023-04-01T05:47:10;98479.91;;;6.84;100.00
77149;BME280;66122;47.130;16.844;2023-04-01T05:57:40;98480.06;;;6.81;100.00
77149;BME280;66122;47.130;16.844;2023-04-01T06:07:51;98482.84;;;7.08;100.00
77149;BME280;66122;47.130;16.844;2023-04-01T06:49:48;98485.25;;;8.23;100.00
77149;BME280;66122;47.130;16.844;2023-04-01T07:00:46;98488.56;;;8.53;100.00
77149;BME280;66122;47.130;16.844;2023-04-01T07:11:02;98501.75;;;9.06;100.00
77149;BME280;66122;47.130;16.844;2023-04-01T07:21:51;98497.00;;;9.49;100.00
77149;BME280;66122;47.130;16.844;2023-04-01T08:05:04;98550.91;;;10.46;100.00
77149;BME280;66122;47.130;16.844;2023-04-01T08:16:02;98518.97;;;11.41;100.00
77149;BME280;66122;47.130;16.844;2023-04-01T08:26:47;98531.72;;;12.47;92.36
77149;BME280;66122;47.130;16.844;2023-04-01T08:36:58;98538.69;;;13.23;88.52
77149;BME280;66122;47.130;16.844;2023-04-01T08:58:01;98543.56;;;13.60;80.28
77149;BME280;66122;47.130;16.844;2023-04-01T09:40:37;98540.25;;;14.07;68.19
77149;BME280;66122;47.130;16.844;2023-04-01T11:04:37;98520.97;;;18.43;48.10
77149;BME280;66122;47.130;16.844;2023-04-01T11:25:49;98494.91;;;18.69;42.23
77149;BME280;66122;47.130;16.844;2023-04-01T12:07:53;98477.91;;;14.29;56.29
77149;BME280;66122;47.130;16.844;2023-04-01T12:18:46;98472.09;;;13.95;52.88
77149;BME280;66122;47.130;16.844;2023-04-01T12:39:48;98514.44;;;12.85;69.21
77149;BME280;66122;47.130;16.844;2023-04-01T12:50:21;98508.16;;;12.86;77.31
77149;BME280;66122;47.130;16.844;2023-04-01T14:04:03;98451.16;;;16.64;57.93
77149;BME280;66122;47.130;16.844;2023-04-01T14:24:47;98447.41;;;18.04;52.02
77149;BME280;66122;47.130;16.844;2023-04-01T14:46:04;98449.31;;;18.94;38.29
77149;BME280;66122;47.130;16.844;2023-04-01T14:56:12;98424.81;;;17.64;41.65
77149;BME280;66122;47.130;16.844;2023-04-01T15:16:55;98454.84;;;15.63;44.40
77149;BME280;66122;47.130;16.844;2023-04-01T15:38:11;98470.66;;;14.99;52.19
77149;BME280;66122;47.130;16.844;2023-04-01T15:59:09;98466.28;;;13.81;58.86
77149;BME280;66122;47.130;16.844;2023-04-01T16:30:38;98515.28;;;13.17;62.14
77149;BME280;66122;47.130;16.844;2023-04-01T16:40:58;98503.28;;;12.91;65.79
77149;BME280;66122;47.130;16.844;2023-04-01T16:51:15;98533.50;;;12.90;63.96
77149;BME280;66122;47.130;16.844;2023-04-01T17:02:04;98530.25;;;12.86;65.31
77149;BME280;66122;47.130;16.844;2023-04-01T17:12:42;98566.09;;;13.03;63.79
77149;BME280;66122;47.130;16.844;2023-04-01T18:26:39;98620.94;;;10.78;74.50
77149;BME280;66122;47.130;16.844;2023-04-01T18:47:54;98653.94;;;10.62;74.33
77149;BME280;66122;47.130;16.844;2023-04-01T18:58:30;98663.59;;;10.63;75.85
77149;BME280;66122;47.130;16.844;2023-04-01T19:08:40;98677.03;;;10.60;74.77
77149;BME280;66122;47.130;16.844;2023-04-01T19:29:43;98681.03;;;10.29;75.52
77149;BME280;66122;47.130;16.844;2023-04-01T20:00:58;98734.78;;;10.04;79.04
77149;BME280;66122;47.130;16.844;2023-04-01T21:57:57;98855.31;;;9.56;82.45
77149;BME280;66122;47.130;16.844;2023-04-01T22:19:05;98864.25;;;9.67;82.59
77149;BME280;66122;47.130;16.844;2023-04-01T22:29:23;98872.34;;;9.78;81.23
77149;BME280;66122;47.130;16.844;2023-04-01T22:39:53;98836.25;;;9.51;84.30
77149;BME280;66122;47.130;16.844;2023-04-01T22:50:44;98835.84;;;9.57;81.57
77149;BME280;66122;47.130;16.844;2023-04-01T23:01:04;98859.41;;;9.74;79.90
77149;BME280;66122;47.130;16.844;2023-04-01T23:22:10;98879.28;;;9.94;79.07
77149;BME280;66122;47.130;16.844;2023-04-01T23:32:26;98896.66;;;9.71;80.67
77149;BME280;66122;47.130;16.844;2023-04-01T23:42:44;98868.13;;;9.62;83.41
77149;BME280;66122;47.130;16.844;2023-04-01T23:53:25;98859.03;;;9.39;83.49
